Wenatchee, WA (98807)

3:02 AM PDT on August 30, 2014 (GMT -0700)
Pitcher Canyon | Change Station
CLOSE
Current Station
Personal Weather Station
Location: Wenatchee, WA
Elevation: 1440 ft
Nearby Weather Stations

Elev 1440 ft 47.37 °N, 120.33 °W | Updated 38 seconds ago

Clear
Clear
60.2 °F
Feels Like 60.2 °F
N
0.0
Wind Variable Wind from WNW
Gusts 2.0 mph

Today
High -- | Low -- °F
--% Chance of Precip.
Yesterday
High -- | Low -- °F
Precip. -- in
6:17 AM 7:44 PM
Waxing Crescent, 20% visible
Pressure 29.86 in
Visibility 10.0 miles
Clouds Clear
Dew Point 46 °F
Humidity 59%
Rainfall 0.00 in
Snow Depth Not available.
UV 0 out of 12
Pollen 4.70 out of 12
Air Quality Not available.
Flu Activity Not available.
METAR KEAT 300955Z AUTO 29004KT 10SM CLR 17/08 A2988 RMK AO2 SLP110 T01670078

More Conditions Fewer Conditions

Pressure 29.86 in
Visibility 10.0 miles
Clouds Clear
Dew Point 46 °F
Humidity 59%
Rainfall 0.00 in
Snow Depth Not available.
UV 0 out of 12
Pollen 4.70 out of 12
Air Quality Not available.
Flu Activity Not available.
METAR KEAT 300955Z AUTO 29004KT 10SM CLR 17/08 A2988 RMK AO2 SLP110 T01670078

More Conditions Fewer Conditions

10-Day Weather Forecast

Almanac

Astronomy

Aug. 30, 2014 Rise Set
Actual Time 6:17 AM PDT 7:44 PM PDT
Civil Twilight 5:45 AM PDT 8:16 PM PDT
Nautical Twilight 5:06 AM PDT 8:55 PM PDT
Astronomical Twilight 4:24 AM PDT 9:37 PM PDT
Moon 11:32 AM PDT 9:59 PM PDT
Length of Visible Light 14h 31m
Length of Day
13h 27m
Tomorrow will be 3m 16s shorter.
Waxing Crescent, 20% of the Moon is Illuminated
Today
Waxing Crescent
Sep 2
First Quarter
Sep 8
Full
Sep 15
Last Quarter
Sep 24
New

Today's Extremes

State Highs State Lows

Community

WunderPhotos

Upload Photos

1,748,475 photos uploaded!

Nearby

Snow Depth

Station Depth Elevation
Upper Wheeler 0 in 4400 ft
Trough 0 in 5300 ft
Grouse Camp 0 in 5380 ft
Blewett Pass 0 in 4270 ft
Sasse Ridge 0 in 4200 ft

Earthquake Activity

City Distance Mag. Time & Date
No recent earthquake activity has been reported nearby.
Minimum magnitude displayed is 2.5.

Coastal Water Temperatures

Place Temperature
No Stations Reporting

Nearby Weather Stations